Wewela, South Dakota
Current Conditions -  °F | °C
As of 9:53 PM on Wednesday 17 Dec 2014 (Local Time) from KICR Reporting Station
Overcast Overcast  
Wind Chill: 10°   Ceiling: 600
Heat Index: 22°   Visibility: NA
Dew Point: 18°   Wind: 12mph
Humidity: 85%   Direction: 140°SE
Pressure: 30.15"   Gusts: NA
Location:  43.01°N, 99.78°W
Report Text: KICR 180353Z AUTO 14010KT OVC006 M06/M08 A3015 RMK AO2 SLP241 T10561078 $
Loading
Personal Weather Stations






























Interactive Weather Map New forecast layout! Learn more

10-Day Weather Forecast

Advertisements
Track Severe Weather on mobile